LIEA

Alghero–Fertilia Airport

Airport
ICAO code
LIEA
IATA Code
AHO
Summary
ICAO Region
EUR
ICAO Territory
Location

Fertilia, Sardinia

Serving
Alghero
Elevation
87 ft
Coordinates
40° 37' 51" N , 8° 17' 18" E
KCC
Metar
Observation
LIEA 031850Z 24004KT 9999 BKN020 10/09 Q1028
Station
Alghero
Date/Time
2023-02-03 18:50:00
Wind direction
240°
Wind speed
04 kts
Lowest cloud amount
broken clouds
Temperature
10°C
Dew point
9°C
Humidity
93%
QNH
1028 hPa
Weather condition
n/a

Alghero - Riviera del Corallo Airport is an international airport situated 4.3 nm north-northwest of the city of Alghero, in northern Sardinia, Italy. It is also known as Alghero–Fertilia Airport, named for the nearby village of Fertilia or Alghero Airport.

Climatology

Warm mediterranean climate (Köppen climate classification Csa)

Runways

Designator Length Width Surface Rops
2/20 3000 45 ASP Yes/Yes

Airport map

Aerial View

SKYbrary Partners:

Safety knowledge contributed by: